createdAt,value
2018-02-17T00:01:57.890Z,101747.73
2018-02-17T00:04:26.328Z,101749.98
2018-02-17T00:06:55.465Z,101755.52
2018-02-17T00:09:23.865Z,101752.99
2018-02-17T00:11:52.262Z,101750.38
2018-02-17T00:14:20.653Z,101754.52
2018-02-17T00:16:49.811Z,101748.30
2018-02-17T00:19:18.224Z,101758.56
2018-02-17T00:21:46.615Z,101749.94
2018-02-17T00:24:15.002Z,101756.69
2018-02-17T00:26:44.211Z,101760.56
2018-02-17T00:29:13.370Z,101763.43
2018-02-17T00:31:41.849Z,101771.66
2018-02-17T00:34:10.230Z,101769.29
2018-02-17T00:36:38.607Z,101768.44
2018-02-17T00:39:07.015Z,101766.83
2018-02-17T00:41:35.390Z,101762.98
2018-02-17T00:44:04.764Z,101767.90
2018-02-17T00:46:33.254Z,101771.83
2018-02-17T00:49:01.662Z,101766.54
2018-02-17T00:51:30.045Z,101767.19
2018-02-17T00:53:58.473Z,101766.11
2018-02-17T00:56:26.869Z,101766.00
2018-02-17T00:58:55.260Z,101771.84
2018-02-17T01:01:23.662Z,101768.63
2018-02-17T01:03:52.039Z,101768.63
2018-02-17T01:06:20.438Z,101769.27
2018-02-17T01:08:49.683Z,101761.41
2018-02-17T01:11:18.094Z,101759.43
2018-02-17T01:13:46.500Z,101758.64
2018-02-17T01:16:15.682Z,101758.51
2018-02-17T01:18:44.694Z,101755.65
2018-02-17T01:21:13.859Z,101752.60
2018-02-17T01:23:42.281Z,101756.69
2018-02-17T01:26:11.425Z,101754.17
2018-02-17T01:28:39.859Z,101754.52
2018-02-17T01:31:08.994Z,101758.64
2018-02-17T01:33:37.377Z,101761.38
2018-02-17T01:36:05.789Z,101765.02
2018-02-17T01:38:34.163Z,101756.02
2018-02-17T01:41:02.573Z,101756.48
2018-02-17T01:43:31.017Z,101757.18
2018-02-17T01:45:59.393Z,101755.97
2018-02-17T01:48:27.770Z,101756.28
2018-02-17T01:50:56.228Z,101758.08
2018-02-17T01:53:24.629Z,101746.91
2018-02-17T01:55:53.013Z,101741.42
2018-02-17T01:58:21.402Z,101747.14
2018-02-17T02:00:49.859Z,101740.70
2018-02-17T02:03:18.273Z,101743.06
2018-02-17T02:05:47.416Z,101736.16
2018-02-17T02:08:15.815Z,101727.52
2018-02-17T02:10:44.183Z,101720.97
2018-02-17T02:13:12.686Z,101721.77
2018-02-17T02:15:41.141Z,101724.81
2018-02-17T02:18:09.551Z,101723.52
2018-02-17T02:20:37.946Z,101720.70
2018-02-17T02:23:06.320Z,101723.03
2018-02-17T02:25:34.715Z,101719.48
2018-02-17T02:28:03.973Z,101718.75
2018-02-17T02:30:32.362Z,101719.63
2018-02-17T02:33:00.763Z,101719.67
2018-02-17T02:35:29.189Z,101707.86
2018-02-17T02:37:57.622Z,101710.19
2018-02-17T02:40:26.875Z,101707.22
2018-02-17T02:42:55.305Z,101707.63
2018-02-17T02:45:24.454Z,101709.80
2018-02-17T02:47:52.856Z,101709.27
2018-02-17T02:50:21.306Z,101706.30
2018-02-17T02:52:49.685Z,101709.65
2018-02-17T02:55:18.156Z,101706.03
2018-02-17T02:57:46.558Z,101702.03
2018-02-17T03:00:15.725Z,101705.66
2018-02-17T03:02:44.092Z,101706.03
2018-02-17T03:05:12.492Z,101701.73
2018-02-17T03:07:40.861Z,101701.46
2018-02-17T03:10:09.287Z,101689.50
2018-02-17T03:12:37.683Z,101692.39
2018-02-17T03:15:06.056Z,101690.19
2018-02-17T03:17:34.511Z,101693.83
2018-02-17T03:20:02.893Z,101687.44
2018-02-17T03:22:31.262Z,101685.11
2018-02-17T03:24:59.670Z,101687.59
2018-02-17T03:27:28.046Z,101680.16
2018-02-17T03:29:56.454Z,101682.78
2018-02-17T03:32:25.627Z,101692.60
2018-02-17T03:34:54.051Z,101688.80
2018-02-17T03:37:22.431Z,101683.36
2018-02-17T03:39:50.806Z,101690.78
2018-02-17T03:42:19.237Z,101681.95
2018-02-17T03:44:47.645Z,101680.28
2018-02-17T03:47:16.056Z,101674.84
2018-02-17T03:49:44.485Z,101670.69
2018-02-17T03:52:12.904Z,101675.45
2018-02-17T03:54:41.275Z,101677.08
2018-02-17T03:57:09.681Z,101672.73
2018-02-17T03:59:38.181Z,101671.44
2018-02-17T04:02:06.550Z,101678.13
2018-02-17T04:04:34.925Z,101677.29
2018-02-17T04:07:03.393Z,101674.05
2018-02-17T04:09:31.864Z,101678.95
2018-02-17T04:12:00.350Z,101670.39
2018-02-17T04:14:28.749Z,101667.39
2018-02-17T04:16:57.145Z,101671.83
2018-02-17T04:19:25.545Z,101666.88
2018-02-17T04:21:54.695Z,101673.80
2018-02-17T04:24:23.129Z,101671.56
2018-02-17T04:26:51.506Z,101667.95
2018-02-17T04:29:19.897Z,101672.76
2018-02-17T04:31:48.298Z,101671.02
2018-02-17T04:34:16.724Z,101677.86
2018-02-17T04:36:45.115Z,101678.06
2018-02-17T04:39:13.485Z,101675.55
2018-02-17T04:41:48.239Z,101675.83
2018-02-17T04:44:17.546Z,101679.05
2018-02-17T04:46:50.160Z,101673.47
2018-02-17T04:49:24.905Z,101675.34
2018-02-17T04:52:03.231Z,101678.25
2018-02-17T04:57:45.523Z,101679.91
2018-02-17T05:00:20.071Z,101677.47
2018-02-17T05:03:01.059Z,101672.42
2018-02-17T05:05:35.727Z,101667.84
2018-02-17T05:08:09.665Z,101663.00
2018-02-17T05:10:38.070Z,101659.27
2018-02-17T05:13:06.478Z,101654.69
2018-02-17T05:15:49.771Z,101655.60
2018-02-17T05:21:24.260Z,101660.74
2018-02-17T05:23:58.122Z,101663.59
2018-02-17T05:26:27.336Z,101642.55
2018-02-17T05:28:59.879Z,101638.09
2018-02-17T05:31:28.287Z,101632.25
2018-02-17T05:34:11.564Z,101636.36
2018-02-17T05:36:42.281Z,101632.20
2018-02-17T05:39:10.651Z,101634.46
2018-02-17T05:41:39.029Z,101635.12
2018-02-17T05:44:08.374Z,101636.75
2018-02-17T05:46:36.818Z,101636.53
2018-02-17T05:49:05.681Z,101630.45
2018-02-17T05:51:34.121Z,101637.77
2018-02-17T05:54:02.530Z,101631.64
2018-02-17T05:56:30.917Z,101634.00
2018-02-17T05:58:59.335Z,101623.00
2018-02-17T06:01:27.727Z,101621.17
2018-02-17T06:03:56.102Z,101620.74
2018-02-17T06:06:24.502Z,101619.91
2018-02-17T06:08:53.668Z,101621.06
2018-02-17T06:11:22.078Z,101619.31
2018-02-17T06:13:51.281Z,101620.77
2018-02-17T06:16:20.449Z,101628.55
2018-02-17T06:18:48.830Z,101627.05
2018-02-17T06:21:17.218Z,101621.65
2018-02-17T06:23:45.737Z,101618.11
2018-02-17T06:26:14.115Z,101620.59
2018-02-17T06:28:42.497Z,101625.84
2018-02-17T06:31:10.907Z,101619.83
2018-02-17T06:33:39.285Z,101617.41
2018-02-17T06:36:07.669Z,101608.50
2018-02-17T06:38:36.078Z,101612.70
2018-02-17T06:41:05.244Z,101604.11
2018-02-17T06:43:33.691Z,101604.88
2018-02-17T06:46:02.077Z,101601.78
2018-02-17T06:48:30.485Z,101596.61
2018-02-17T06:50:58.866Z,101595.59
2018-02-17T06:53:27.316Z,101591.20
2018-02-17T06:55:55.714Z,101587.64
2018-02-17T06:58:24.129Z,101590.53
2018-02-17T07:00:53.269Z,101588.78
2018-02-17T07:03:21.735Z,101580.41
2018-02-17T07:05:50.142Z,101582.27
2018-02-17T07:08:18.538Z,101586.42
2018-02-17T07:10:46.923Z,101584.17
2018-02-17T07:13:15.330Z,101579.41
2018-02-17T07:15:44.461Z,101575.66
2018-02-17T07:18:12.857Z,101575.34
2018-02-17T07:20:41.299Z,101573.47
2018-02-17T07:23:09.671Z,101567.69
2018-02-17T07:25:38.101Z,101566.31
2018-02-17T07:28:06.502Z,101565.77
2018-02-17T07:30:35.638Z,101565.77
2018-02-17T07:33:04.088Z,101564.92
2018-02-17T07:35:33.230Z,101570.27
2018-02-17T07:38:01.634Z,101575.07
2018-02-17T07:40:30.442Z,101575.36
2018-02-17T07:42:59.609Z,101578.45
2018-02-17T07:45:28.764Z,101572.50
2018-02-17T07:47:57.174Z,101580.38
2018-02-17T07:50:25.580Z,101586.55
2018-02-17T07:52:53.962Z,101583.62
2018-02-17T07:55:22.365Z,101582.76
2018-02-17T07:57:51.591Z,101589.59
2018-02-17T08:00:19.974Z,101582.37
2018-02-17T08:02:48.363Z,101581.84
2018-02-17T08:05:16.732Z,101574.31
2018-02-17T08:07:45.127Z,101572.09
2018-02-17T08:10:13.595Z,101564.61
2018-02-17T08:12:41.979Z,101561.64
2018-02-17T08:15:10.350Z,101558.16
2018-02-17T08:17:38.737Z,101549.99
2018-02-17T08:20:07.106Z,101546.29
2018-02-17T08:22:35.692Z,101545.93
2018-02-17T08:25:04.078Z,101542.52
2018-02-17T08:27:32.471Z,101545.47
2018-02-17T08:30:00.862Z,101545.77
2018-02-17T08:32:29.233Z,101549.67
2018-02-17T08:34:57.606Z,101547.27
2018-02-17T08:37:26.009Z,101548.17
2018-02-17T08:39:55.199Z,101543.59
2018-02-17T08:42:23.586Z,101532.75
2018-02-17T08:44:51.957Z,101526.14
2018-02-17T08:47:20.362Z,101525.64
2018-02-17T08:49:48.748Z,101525.13
2018-02-17T08:52:17.127Z,101523.24
2018-02-17T08:54:45.525Z,101522.22
2018-02-17T08:57:13.970Z,101508.79
2018-02-17T08:59:43.127Z,101513.67
2018-02-17T09:02:11.543Z,101502.53
2018-02-17T09:04:40.684Z,101514.11
2018-02-17T09:07:09.081Z,101516.42
2018-02-17T09:09:37.490Z,101511.74
2018-02-17T09:12:06.657Z,101513.73
2018-02-17T09:14:35.017Z,101514.98
2018-02-17T09:17:03.414Z,101510.72
2018-02-17T09:19:31.781Z,101511.23
2018-02-17T09:22:00.184Z,101510.55
2018-02-17T09:24:28.587Z,101512.94
2018-02-17T09:26:57.725Z,101513.66
2018-02-17T09:29:26.148Z,101520.20
2018-02-17T09:31:54.544Z,101524.61
2018-02-17T09:34:23.691Z,101524.80
2018-02-17T09:36:52.146Z,101516.30
2018-02-17T09:39:20.515Z,101523.96
2018-02-17T09:41:48.913Z,101523.73
2018-02-17T09:44:17.285Z,101522.91
2018-02-17T09:46:45.715Z,101518.99
2018-02-17T09:49:14.103Z,101518.09
2018-02-17T09:51:42.469Z,101520.78
2018-02-17T09:54:10.889Z,101523.08
2018-02-17T09:56:39.262Z,101525.82
2018-02-17T09:59:07.655Z,101523.80
2018-02-17T10:01:36.070Z,101532.00
2018-02-17T10:04:04.539Z,101531.16
2018-02-17T10:06:32.938Z,101534.75
2018-02-17T10:09:01.341Z,101539.57
2018-02-17T10:11:30.487Z,101541.64
2018-02-17T10:13:58.863Z,101548.66
2018-02-17T10:16:27.258Z,101548.46
2018-02-17T10:18:55.669Z,101551.45
2018-02-17T10:21:24.817Z,101540.73
2018-02-17T10:23:53.195Z,101553.22
2018-02-17T10:26:21.600Z,101550.52
2018-02-17T10:28:49.980Z,101547.91
2018-02-17T10:31:18.435Z,101543.84
2018-02-17T10:33:46.812Z,101551.08
2018-02-17T10:36:15.218Z,101545.81
2018-02-17T10:38:43.589Z,101541.89
2018-02-17T10:41:11.957Z,101540.83
2018-02-17T10:43:40.420Z,101538.47
2018-02-17T10:46:08.850Z,101530.16
2018-02-17T10:48:37.265Z,101537.86
2018-02-17T10:51:06.462Z,101530.91
2018-02-17T10:53:34.859Z,101535.33
2018-02-17T10:56:03.220Z,101533.44
2018-02-17T10:58:31.651Z,101533.73
2018-02-17T11:01:00.093Z,101537.26
2018-02-17T11:03:28.470Z,101529.91
2018-02-17T11:05:56.842Z,101530.39
2018-02-17T11:08:25.269Z,101531.77
2018-02-17T11:10:53.650Z,101530.64
2018-02-17T11:13:22.024Z,101534.64
2018-02-17T11:15:50.431Z,101543.44
2018-02-17T11:18:19.575Z,101536.39
2018-02-17T11:20:47.981Z,101538.75
2018-02-17T11:23:16.494Z,101534.36
2018-02-17T11:25:45.633Z,101532.78
2018-02-17T11:28:14.059Z,101532.84
2018-02-17T11:30:43.195Z,101526.84
2018-02-17T11:33:12.382Z,101525.91
2018-02-17T11:35:40.799Z,101519.75
2018-02-17T11:38:09.220Z,101516.35
2018-02-17T11:40:38.377Z,101505.95
2018-02-17T11:43:06.779Z,101515.55
2018-02-17T11:45:35.183Z,101510.07
2018-02-17T11:48:03.553Z,101511.91
2018-02-17T11:50:32.713Z,101504.16
2018-02-17T11:53:01.109Z,101505.73
2018-02-17T11:55:29.516Z,101503.56
2018-02-17T11:57:58.116Z,101498.80
2018-02-17T12:00:27.327Z,101496.87
2018-02-17T12:02:55.710Z,101493.73
2018-02-17T12:05:24.125Z,101485.56
2018-02-17T12:07:52.522Z,101489.96
2018-02-17T12:10:21.666Z,101487.28
2018-02-17T12:12:50.064Z,101487.95
2018-02-17T12:15:18.443Z,101489.95
2018-02-17T12:17:46.856Z,101489.41
2018-02-17T12:20:15.258Z,101480.98
2018-02-17T12:22:43.623Z,101474.10
2018-02-17T12:25:12.012Z,101478.65
2018-02-17T12:27:40.389Z,101480.31
2018-02-17T12:30:08.810Z,101484.69
2018-02-17T12:32:37.190Z,101472.16
2018-02-17T12:35:05.578Z,101477.91
2018-02-17T12:37:34.030Z,101473.36
2018-02-17T12:40:02.448Z,101473.23
2018-02-17T12:42:30.868Z,101463.11
2018-02-17T12:44:59.274Z,101457.31
2018-02-17T12:47:27.650Z,101459.03
2018-02-17T12:49:56.074Z,101453.42
2018-02-17T12:52:25.320Z,101449.65
2018-02-17T12:54:53.712Z,101459.12
2018-02-17T12:57:22.130Z,101452.20
2018-02-17T12:59:51.270Z,101451.58
2018-02-17T13:02:19.661Z,101446.74
2018-02-17T13:04:48.034Z,101452.21
2018-02-17T13:07:16.453Z,101452.42
2018-02-17T13:09:45.582Z,101454.19
2018-02-17T13:12:13.946Z,101453.73
2018-02-17T13:14:43.099Z,101449.28
2018-02-17T13:19:46.174Z,101450.97
2018-02-17T13:22:14.582Z,101452.11
2018-02-17T13:24:43.050Z,101451.19
2018-02-17T13:27:11.418Z,101456.02
2018-02-17T13:29:39.819Z,101448.16
2018-02-17T13:32:08.198Z,101449.39
2018-02-17T13:34:36.586Z,101454.70
2018-02-17T13:37:05.858Z,101451.98
2018-02-17T13:39:34.231Z,101451.22
2018-02-17T13:42:02.591Z,101443.45
2018-02-17T13:44:30.980Z,101445.32
2018-02-17T13:46:59.347Z,101452.48
2018-02-17T13:49:27.749Z,101447.45
2018-02-17T13:51:56.358Z,101449.12
2018-02-17T13:54:24.894Z,101458.61
2018-02-17T13:56:53.298Z,101455.26
2018-02-17T13:59:22.443Z,101455.28
2018-02-17T14:01:50.870Z,101455.48
2018-02-17T14:04:19.282Z,101455.65
2018-02-17T14:06:47.649Z,101457.27
2018-02-17T14:09:16.267Z,101463.86
2018-02-17T14:11:44.751Z,101464.33
2018-02-17T14:14:14.158Z,101469.30
2018-02-17T14:16:42.597Z,101462.19
2018-02-17T14:19:10.982Z,101467.38
2018-02-17T14:21:39.395Z,101466.12
2018-02-17T14:24:07.769Z,101467.22
2018-02-17T14:26:36.958Z,101471.02
2018-02-17T14:29:06.112Z,101467.27
2018-02-17T14:31:34.472Z,101470.64
2018-02-17T14:34:02.884Z,101475.47
2018-02-17T14:36:31.290Z,101474.28
2018-02-17T14:39:00.460Z,101474.06
2018-02-17T14:41:28.845Z,101477.78
2018-02-17T14:43:57.241Z,101479.84
2018-02-17T14:46:26.395Z,101475.30
2018-02-17T14:48:54.774Z,101485.39
2018-02-17T14:51:23.198Z,101488.47
2018-02-17T14:53:52.367Z,101479.06
2018-02-17T14:56:20.754Z,101481.70
2018-02-17T14:58:49.118Z,101481.57
2018-02-17T15:01:17.588Z,101480.86
2018-02-17T15:03:45.965Z,101482.28
2018-02-17T15:06:14.335Z,101478.80
2018-02-17T15:08:42.710Z,101476.33
2018-02-17T15:11:11.130Z,101475.92
2018-02-17T15:13:39.502Z,101483.36
2018-02-17T15:16:07.885Z,101488.27
2018-02-17T15:18:36.281Z,101485.49
2018-02-17T15:21:05.510Z,101483.08
2018-02-17T15:23:33.884Z,101486.31
2018-02-17T15:26:02.287Z,101486.32
2018-02-17T15:28:30.674Z,101489.21
2018-02-17T15:30:59.043Z,101484.80
2018-02-17T15:33:27.475Z,101491.07
2018-02-17T15:35:56.750Z,101499.30
2018-02-17T15:38:25.119Z,101498.22
2018-02-17T15:40:53.511Z,101505.59
2018-02-17T15:43:21.904Z,101503.28
2018-02-17T15:45:50.265Z,101499.89
2018-02-17T15:48:18.633Z,101507.09
2018-02-17T15:50:47.020Z,101509.23
2018-02-17T15:53:15.450Z,101511.86
2018-02-17T15:55:43.834Z,101510.68
2018-02-17T15:58:12.219Z,101514.91
2018-02-17T16:00:40.613Z,101515.16
2018-02-17T16:03:08.994Z,101515.53
2018-02-17T16:05:37.386Z,101513.66
2018-02-17T16:08:05.782Z,101514.67
2018-02-17T16:10:34.178Z,101521.41
2018-02-17T16:13:03.327Z,101519.66
2018-02-17T16:15:31.705Z,101522.05
2018-02-17T16:18:00.119Z,101518.71
2018-02-17T16:20:28.538Z,101529.96
2018-02-17T16:22:56.913Z,101524.93
2018-02-17T16:25:25.317Z,101523.33
2018-02-17T16:27:53.713Z,101524.53
2018-02-17T16:30:22.107Z,101539.39
2018-02-17T16:32:51.282Z,101538.91
2018-02-17T16:35:19.698Z,101533.25
2018-02-17T16:37:48.228Z,101533.34
2018-02-17T16:40:16.624Z,101534.94
2018-02-17T16:42:45.064Z,101536.38
2018-02-17T16:45:13.457Z,101539.67
2018-02-17T16:47:41.836Z,101547.74
2018-02-17T16:50:10.279Z,101547.99
2018-02-17T16:52:38.687Z,101550.44
2018-02-17T16:55:07.058Z,101551.55
2018-02-17T16:57:35.655Z,101546.58
2018-02-17T17:00:04.062Z,101551.62
2018-02-17T17:02:32.596Z,101548.39
2018-02-17T17:05:00.878Z,101549.18
2018-02-17T17:07:29.253Z,101551.98
2018-02-17T17:09:57.657Z,101551.71
2018-02-17T17:12:26.024Z,101557.76
2018-02-17T17:14:54.387Z,101562.89
2018-02-17T17:17:22.785Z,101558.70
2018-02-17T17:19:51.140Z,101563.66
2018-02-17T17:22:19.539Z,101565.33
2018-02-17T17:24:47.897Z,101563.56
2018-02-17T17:27:16.264Z,101564.08
2018-02-17T17:29:45.414Z,101562.41
2018-02-17T17:32:13.795Z,101567.51
2018-02-17T17:34:42.194Z,101572.47
2018-02-17T17:37:10.643Z,101575.52
2018-02-17T17:39:39.007Z,101573.73
2018-02-17T17:42:07.418Z,101577.09
2018-02-17T17:44:35.825Z,101585.33
2018-02-17T17:47:04.962Z,101580.70
2018-02-17T17:49:33.327Z,101584.93
2018-02-17T17:52:01.711Z,101586.26
2018-02-17T17:54:30.083Z,101587.95
2018-02-17T17:56:58.481Z,101587.03
2018-02-17T17:59:26.867Z,101595.69
2018-02-17T18:01:55.250Z,101589.64
2018-02-17T18:04:24.404Z,101597.17
2018-02-17T18:06:53.553Z,101597.02
2018-02-17T18:09:21.956Z,101596.18
2018-02-17T18:11:51.206Z,101595.83
2018-02-17T18:14:19.589Z,101599.53
2018-02-17T18:16:48.030Z,101595.44
2018-02-17T18:19:17.162Z,101598.96
2018-02-17T18:21:45.590Z,101599.72
2018-02-17T18:24:13.954Z,101606.27
2018-02-17T18:26:42.350Z,101608.62
2018-02-17T18:29:10.786Z,101608.28
2018-02-17T18:31:39.181Z,101612.81
2018-02-17T18:34:07.562Z,101612.83
2018-02-17T18:36:35.933Z,101611.12
2018-02-17T18:39:04.345Z,101615.09
2018-02-17T18:41:33.501Z,101613.91
2018-02-17T18:44:01.881Z,101615.66
2018-02-17T18:46:30.290Z,101613.09
2018-02-17T18:48:58.685Z,101624.25
2018-02-17T18:51:27.886Z,101624.15
2018-02-17T18:53:57.158Z,101623.91
2018-02-17T18:56:25.550Z,101623.07
2018-02-17T18:58:54.912Z,101620.97
2018-02-17T19:01:23.298Z,101622.48
2018-02-17T19:03:51.662Z,101623.74
2018-02-17T19:06:20.054Z,101630.89
2018-02-17T19:08:48.449Z,101627.95
2018-02-17T19:11:16.831Z,101626.78
2018-02-17T19:13:45.206Z,101630.13
2018-02-17T19:16:13.608Z,101634.73
2018-02-17T19:18:42.770Z,101633.41
2018-02-17T19:21:11.169Z,101630.75
2018-02-17T19:23:39.608Z,101632.87
2018-02-17T19:26:08.002Z,101633.86
2018-02-17T19:28:36.381Z,101637.11
2018-02-17T19:31:04.791Z,101631.92
2018-02-17T19:33:33.952Z,101643.17
2018-02-17T19:36:02.428Z,101637.52
2018-02-17T19:38:31.144Z,101634.66
2018-02-17T19:40:59.612Z,101632.95
2018-02-17T19:43:28.000Z,101631.52
2018-02-17T19:45:56.455Z,101631.61
2018-02-17T19:48:24.813Z,101632.48
2018-02-17T19:50:53.230Z,101636.00
2018-02-17T19:53:21.677Z,101631.38
2018-02-17T19:55:50.046Z,101631.61
2018-02-17T19:58:18.454Z,101633.60
2018-02-17T20:00:46.928Z,101639.94
2018-02-17T20:03:15.306Z,101633.55
2018-02-17T20:05:43.685Z,101641.52
2018-02-17T20:08:12.059Z,101639.48
2018-02-17T20:10:40.444Z,101643.27
2018-02-17T20:13:08.822Z,101647.20
2018-02-17T20:15:37.202Z,101652.62
2018-02-17T20:18:05.598Z,101653.97
2018-02-17T20:20:33.976Z,101663.18
2018-02-17T20:23:02.409Z,101658.23
2018-02-17T20:25:30.825Z,101662.62
2018-02-17T20:27:59.243Z,101659.20
2018-02-17T20:30:27.723Z,101657.58
2018-02-17T20:32:56.159Z,101664.88
2018-02-17T20:35:24.615Z,101667.98
2018-02-17T20:37:53.040Z,101664.51
2018-02-17T20:40:21.481Z,101668.81
2018-02-17T20:42:49.901Z,101674.60
2018-02-17T20:45:18.287Z,101664.70
2018-02-17T20:47:46.715Z,101673.78
2018-02-17T20:50:15.135Z,101677.26
2018-02-17T20:52:43.569Z,101680.37
2018-02-17T20:55:12.006Z,101682.39
2018-02-17T20:57:40.441Z,101685.63
2018-02-17T21:00:08.846Z,101686.92
2018-02-17T21:02:37.274Z,101688.45
2018-02-17T21:05:05.646Z,101687.06
2018-02-17T21:07:34.801Z,101685.86
2018-02-17T21:10:03.190Z,101684.28
2018-02-17T21:12:31.665Z,101681.88
2018-02-17T21:15:00.042Z,101681.28
2018-02-17T21:17:28.421Z,101696.27
2018-02-17T21:19:56.842Z,101694.09
2018-02-17T21:22:26.088Z,101690.57
2018-02-17T21:24:54.527Z,101700.75
2018-02-17T21:27:22.993Z,101697.96
2018-02-17T21:29:51.391Z,101705.70
2018-02-17T21:32:19.799Z,101709.00
2018-02-17T21:34:48.173Z,101705.21
2018-02-17T21:37:16.594Z,101712.20
2018-02-17T21:39:45.005Z,101717.88
2018-02-17T21:42:13.438Z,101720.86
2018-02-17T21:44:41.846Z,101723.36
2018-02-17T21:47:11.081Z,101724.80
2018-02-17T21:49:39.457Z,101730.45
2018-02-17T21:52:07.864Z,101735.92
2018-02-17T21:54:36.243Z,101734.75
2018-02-17T21:57:04.625Z,101737.91
2018-02-17T21:59:33.290Z,101737.25
2018-02-17T22:02:01.680Z,101738.98
2018-02-17T22:04:30.070Z,101740.12
2018-02-17T22:06:58.551Z,101743.27
2018-02-17T22:09:26.942Z,101740.69
2018-02-17T22:11:55.335Z,101745.31
2018-02-17T22:14:24.506Z,101741.34
2018-02-17T22:16:52.893Z,101749.88
2018-02-17T22:19:21.290Z,101748.80
2018-02-17T22:21:50.582Z,101748.34
2018-02-17T22:24:19.079Z,101753.72
2018-02-17T22:26:47.510Z,101747.47
2018-02-17T22:29:17.078Z,101752.35
2018-02-17T22:31:45.486Z,101748.55
2018-02-17T22:34:13.939Z,101750.92
2018-02-17T22:36:42.442Z,101754.34
2018-02-17T22:39:10.980Z,101753.73
2018-02-17T22:41:40.118Z,101753.94
2018-02-17T22:44:08.503Z,101751.22
2018-02-17T22:46:37.024Z,101753.62
2018-02-17T22:49:05.472Z,101759.77
2018-02-17T22:51:33.865Z,101758.61
2018-02-17T22:54:02.240Z,101761.17
2018-02-17T22:56:30.783Z,101761.59
2018-02-17T22:58:59.174Z,101765.54
2018-02-17T23:01:27.541Z,101775.30
2018-02-17T23:03:55.906Z,101773.19
2018-02-17T23:06:24.306Z,101781.94
2018-02-17T23:08:52.838Z,101779.03
2018-02-17T23:11:21.193Z,101784.29
2018-02-17T23:13:49.633Z,101781.95
2018-02-17T23:16:18.028Z,101783.16
2018-02-17T23:18:46.550Z,101787.12
2018-02-17T23:21:14.940Z,101784.71
2018-02-17T23:23:43.345Z,101788.42
2018-02-17T23:26:11.708Z,101782.84
2018-02-17T23:28:40.937Z,101792.91
2018-02-17T23:31:09.300Z,101792.34
2018-02-17T23:33:37.701Z,101794.14
2018-02-17T23:36:06.070Z,101792.78
2018-02-17T23:38:34.500Z,101791.00
2018-02-17T23:41:02.867Z,101787.91
2018-02-17T23:43:32.011Z,101787.71
2018-02-17T23:46:00.406Z,101787.52
2018-02-17T23:48:28.779Z,101790.64
2018-02-17T23:50:57.251Z,101792.70
2018-02-17T23:53:25.651Z,101783.47
2018-02-17T23:55:54.138Z,101791.47
2018-02-17T23:58:22.507Z,101784.75
